sensor_id;sensor_type;location;lat;lon;timestamp;P1;durP1;ratioP1;P2;durP2;ratioP2
11510;SDS011;5812;48.864;9.190;2023-04-05T00:01:27;5.10;;;5.10;;
11510;SDS011;5812;48.864;9.190;2023-04-05T00:03:54;5.37;;;5.37;;
11510;SDS011;5812;48.864;9.190;2023-04-05T00:06:21;5.97;;;5.97;;
11510;SDS011;5812;48.864;9.190;2023-04-05T00:08:50;6.70;;;6.70;;
11510;SDS011;5812;48.864;9.190;2023-04-05T00:11:20;5.27;;;5.27;;
11510;SDS011;5812;48.864;9.190;2023-04-05T00:13:46;5.63;;;5.63;;
11510;SDS011;5812;48.864;9.190;2023-04-05T00:16:12;5.33;;;5.33;;
11510;SDS011;5812;48.864;9.190;2023-04-05T00:18:38;5.57;;;5.57;;
11510;SDS011;5812;48.864;9.190;2023-04-05T00:21:09;6.27;;;6.27;;
11510;SDS011;5812;48.864;9.190;2023-04-05T00:23:38;7.10;;;7.10;;
11510;SDS011;5812;48.864;9.190;2023-04-05T00:26:05;6.17;;;6.17;;
11510;SDS011;5812;48.864;9.190;2023-04-05T00:28:31;5.23;;;5.23;;
11510;SDS011;5812;48.864;9.190;2023-04-05T00:30:57;5.77;;;5.77;;
11510;SDS011;5812;48.864;9.190;2023-04-05T00:33:22;5.23;;;5.23;;
11510;SDS011;5812;48.864;9.190;2023-04-05T00:35:48;5.57;;;5.57;;
11510;SDS011;5812;48.864;9.190;2023-04-05T00:38:14;5.13;;;5.13;;
11510;SDS011;5812;48.864;9.190;2023-04-05T00:40:39;5.80;;;5.80;;
11510;SDS011;5812;48.864;9.190;2023-04-05T00:43:05;6.10;;;6.10;;
11510;SDS011;5812;48.864;9.190;2023-04-05T00:45:31;5.73;;;5.73;;
11510;SDS011;5812;48.864;9.190;2023-04-05T00:47:57;5.50;;;5.50;;
11510;SDS011;5812;48.864;9.190;2023-04-05T00:50:22;6.27;;;6.27;;
11510;SDS011;5812;48.864;9.190;2023-04-05T00:52:49;6.53;;;6.53;;
11510;SDS011;5812;48.864;9.190;2023-04-05T00:55:15;6.33;;;6.33;;
11510;SDS011;5812;48.864;9.190;2023-04-05T00:57:41;6.20;;;6.20;;
11510;SDS011;5812;48.864;9.190;2023-04-05T01:00:09;6.20;;;6.20;;
11510;SDS011;5812;48.864;9.190;2023-04-05T01:02:39;6.20;;;6.20;;
11510;SDS011;5812;48.864;9.190;2023-04-05T01:05:16;6.67;;;6.67;;
11510;SDS011;5812;48.864;9.190;2023-04-05T01:07:49;5.53;;;5.53;;
11510;SDS011;5812;48.864;9.190;2023-04-05T01:10:21;5.93;;;5.93;;
11510;SDS011;5812;48.864;9.190;2023-04-05T01:12:55;7.37;;;7.37;;
11510;SDS011;5812;48.864;9.190;2023-04-05T01:15:20;6.17;;;6.17;;
11510;SDS011;5812;48.864;9.190;2023-04-05T01:17:46;6.83;;;6.83;;
11510;SDS011;5812;48.864;9.190;2023-04-05T01:20:12;6.20;;;6.20;;
11510;SDS011;5812;48.864;9.190;2023-04-05T01:22:50;5.60;;;5.60;;
11510;SDS011;5812;48.864;9.190;2023-04-05T01:30:47;5.77;;;5.77;;
11510;SDS011;5812;48.864;9.190;2023-04-05T01:34:05;5.97;;;5.97;;
11510;SDS011;5812;48.864;9.190;2023-04-05T01:36:23;5.07;;;5.07;;
11510;SDS011;5812;48.864;9.190;2023-04-05T01:39:04;5.67;;;5.67;;
11510;SDS011;5812;48.864;9.190;2023-04-05T01:41:31;5.97;;;5.97;;
11510;SDS011;5812;48.864;9.190;2023-04-05T01:43:57;5.70;;;5.70;;
11510;SDS011;5812;48.864;9.190;2023-04-05T01:46:22;6.17;;;6.17;;
11510;SDS011;5812;48.864;9.190;2023-04-05T01:48:48;6.10;;;6.10;;
11510;SDS011;5812;48.864;9.190;2023-04-05T01:51:14;5.70;;;5.70;;
11510;SDS011;5812;48.864;9.190;2023-04-05T01:53:39;5.77;;;5.77;;
11510;SDS011;5812;48.864;9.190;2023-04-05T01:56:05;5.97;;;5.97;;
11510;SDS011;5812;48.864;9.190;2023-04-05T01:58:31;5.87;;;5.87;;
11510;SDS011;5812;48.864;9.190;2023-04-05T02:00:56;6.00;;;6.00;;
11510;SDS011;5812;48.864;9.190;2023-04-05T02:03:22;6.10;;;6.10;;
11510;SDS011;5812;48.864;9.190;2023-04-05T02:05:48;5.97;;;5.97;;
11510;SDS011;5812;48.864;9.190;2023-04-05T02:08:15;5.87;;;5.87;;
11510;SDS011;5812;48.864;9.190;2023-04-05T02:10:41;5.87;;;5.87;;
11510;SDS011;5812;48.864;9.190;2023-04-05T02:13:07;6.37;;;6.37;;
11510;SDS011;5812;48.864;9.190;2023-04-05T02:15:32;6.37;;;6.37;;
11510;SDS011;5812;48.864;9.190;2023-04-05T02:17:58;6.30;;;6.30;;
11510;SDS011;5812;48.864;9.190;2023-04-05T02:20:27;5.30;;;5.30;;
11510;SDS011;5812;48.864;9.190;2023-04-05T02:22:54;5.67;;;5.67;;
11510;SDS011;5812;48.864;9.190;2023-04-05T02:25:20;6.10;;;6.10;;
11510;SDS011;5812;48.864;9.190;2023-04-05T02:27:46;5.87;;;5.87;;
11510;SDS011;5812;48.864;9.190;2023-04-05T02:30:12;6.23;;;6.23;;
11510;SDS011;5812;48.864;9.190;2023-04-05T02:32:41;6.13;;;6.13;;
11510;SDS011;5812;48.864;9.190;2023-04-05T02:35:07;6.50;;;6.50;;
11510;SDS011;5812;48.864;9.190;2023-04-05T02:37:33;6.03;;;6.03;;
11510;SDS011;5812;48.864;9.190;2023-04-05T02:39:59;6.40;;;6.40;;
11510;SDS011;5812;48.864;9.190;2023-04-05T02:42:25;6.23;;;6.23;;
11510;SDS011;5812;48.864;9.190;2023-04-05T02:44:51;6.70;;;6.70;;
11510;SDS011;5812;48.864;9.190;2023-04-05T02:47:17;6.37;;;6.37;;
11510;SDS011;5812;48.864;9.190;2023-04-05T02:49:46;6.13;;;6.13;;
11510;SDS011;5812;48.864;9.190;2023-04-05T02:52:12;5.97;;;5.97;;
11510;SDS011;5812;48.864;9.190;2023-04-05T02:54:38;5.90;;;5.90;;
11510;SDS011;5812;48.864;9.190;2023-04-05T02:57:04;6.03;;;6.03;;
11510;SDS011;5812;48.864;9.190;2023-04-05T02:59:30;6.93;;;6.93;;
11510;SDS011;5812;48.864;9.190;2023-04-05T03:01:55;7.67;;;7.67;;
11510;SDS011;5812;48.864;9.190;2023-04-05T03:04:21;8.37;;;8.37;;
11510;SDS011;5812;48.864;9.190;2023-04-05T03:06:50;8.67;;;8.67;;
11510;SDS011;5812;48.864;9.190;2023-04-05T03:09:18;12.30;;;12.30;;
11510;SDS011;5812;48.864;9.190;2023-04-05T03:11:47;12.50;;;12.50;;
11510;SDS011;5812;48.864;9.190;2023-04-05T03:14:13;10.83;;;10.83;;
11510;SDS011;5812;48.864;9.190;2023-04-05T03:16:38;8.80;;;8.80;;
11510;SDS011;5812;48.864;9.190;2023-04-05T03:19:04;7.27;;;7.27;;
11510;SDS011;5812;48.864;9.190;2023-04-05T03:21:30;6.53;;;6.53;;
11510;SDS011;5812;48.864;9.190;2023-04-05T03:23:57;6.20;;;6.20;;
11510;SDS011;5812;48.864;9.190;2023-04-05T03:26:24;6.90;;;6.90;;
11510;SDS011;5812;48.864;9.190;2023-04-05T03:28:50;6.70;;;6.70;;
11510;SDS011;5812;48.864;9.190;2023-04-05T03:31:15;6.33;;;6.33;;
11510;SDS011;5812;48.864;9.190;2023-04-05T03:33:41;6.90;;;6.90;;
11510;SDS011;5812;48.864;9.190;2023-04-05T03:36:07;7.50;;;7.50;;
11510;SDS011;5812;48.864;9.190;2023-04-05T03:38:33;6.30;;;6.30;;
11510;SDS011;5812;48.864;9.190;2023-04-05T03:41:00;7.00;;;7.00;;
11510;SDS011;5812;48.864;9.190;2023-04-05T03:43:26;6.80;;;6.80;;
11510;SDS011;5812;48.864;9.190;2023-04-05T03:45:53;6.90;;;6.90;;
11510;SDS011;5812;48.864;9.190;2023-04-05T03:48:19;6.37;;;6.37;;
11510;SDS011;5812;48.864;9.190;2023-04-05T03:50:45;7.10;;;7.10;;
11510;SDS011;5812;48.864;9.190;2023-04-05T03:53:11;6.27;;;6.27;;
11510;SDS011;5812;48.864;9.190;2023-04-05T03:55:37;6.50;;;6.50;;
11510;SDS011;5812;48.864;9.190;2023-04-05T03:58:04;6.37;;;6.37;;
11510;SDS011;5812;48.864;9.190;2023-04-05T04:00:29;6.73;;;6.73;;
11510;SDS011;5812;48.864;9.190;2023-04-05T04:02:55;6.37;;;6.37;;
11510;SDS011;5812;48.864;9.190;2023-04-05T04:05:20;6.03;;;6.03;;
11510;SDS011;5812;48.864;9.190;2023-04-05T04:07:46;6.17;;;6.17;;
11510;SDS011;5812;48.864;9.190;2023-04-05T04:10:13;5.93;;;5.93;;
11510;SDS011;5812;48.864;9.190;2023-04-05T04:12:41;6.37;;;6.37;;
11510;SDS011;5812;48.864;9.190;2023-04-05T04:15:07;7.10;;;7.10;;
11510;SDS011;5812;48.864;9.190;2023-04-05T04:17:35;6.87;;;6.87;;
11510;SDS011;5812;48.864;9.190;2023-04-05T04:20:02;7.33;;;7.33;;
11510;SDS011;5812;48.864;9.190;2023-04-05T04:22:35;6.90;;;6.90;;
11510;SDS011;5812;48.864;9.190;2023-04-05T04:25:08;7.27;;;7.27;;
11510;SDS011;5812;48.864;9.190;2023-04-05T04:27:36;6.90;;;6.90;;
11510;SDS011;5812;48.864;9.190;2023-04-05T04:30:04;6.23;;;6.23;;
11510;SDS011;5812;48.864;9.190;2023-04-05T04:32:34;6.53;;;6.53;;
11510;SDS011;5812;48.864;9.190;2023-04-05T04:35:19;6.07;;;6.07;;
11510;SDS011;5812;48.864;9.190;2023-04-05T04:40:22;5.63;;;5.63;;
11510;SDS011;5812;48.864;9.190;2023-04-05T04:42:53;6.23;;;6.23;;
11510;SDS011;5812;48.864;9.190;2023-04-05T04:45:23;6.47;;;6.47;;
11510;SDS011;5812;48.864;9.190;2023-04-05T04:47:49;6.33;;;6.33;;
11510;SDS011;5812;48.864;9.190;2023-04-05T04:50:17;6.60;;;6.60;;
11510;SDS011;5812;48.864;9.190;2023-04-05T04:52:44;7.60;;;7.60;;
11510;SDS011;5812;48.864;9.190;2023-04-05T04:55:11;7.13;;;7.13;;
11510;SDS011;5812;48.864;9.190;2023-04-05T04:57:40;6.90;;;6.90;;
11510;SDS011;5812;48.864;9.190;2023-04-05T05:00:21;6.23;;;6.23;;
11510;SDS011;5812;48.864;9.190;2023-04-05T05:02:49;7.00;;;7.00;;
11510;SDS011;5812;48.864;9.190;2023-04-05T05:05:16;5.97;;;5.97;;
11510;SDS011;5812;48.864;9.190;2023-04-05T05:07:41;7.13;;;7.13;;
11510;SDS011;5812;48.864;9.190;2023-04-05T05:10:08;6.67;;;6.67;;
11510;SDS011;5812;48.864;9.190;2023-04-05T05:12:35;6.23;;;6.23;;
11510;SDS011;5812;48.864;9.190;2023-04-05T05:15:04;7.03;;;7.03;;
11510;SDS011;5812;48.864;9.190;2023-04-05T05:17:30;6.20;;;6.20;;
11510;SDS011;5812;48.864;9.190;2023-04-05T05:20:01;7.37;;;7.37;;
11510;SDS011;5812;48.864;9.190;2023-04-05T05:22:30;7.00;;;7.00;;
11510;SDS011;5812;48.864;9.190;2023-04-05T05:24:55;6.83;;;6.83;;
11510;SDS011;5812;48.864;9.190;2023-04-05T05:27:21;7.10;;;7.10;;
11510;SDS011;5812;48.864;9.190;2023-04-05T05:29:46;7.73;;;7.73;;
11510;SDS011;5812;48.864;9.190;2023-04-05T05:32:12;6.63;;;6.63;;
11510;SDS011;5812;48.864;9.190;2023-04-05T05:34:40;7.27;;;7.27;;
11510;SDS011;5812;48.864;9.190;2023-04-05T05:37:06;7.53;;;7.53;;
11510;SDS011;5812;48.864;9.190;2023-04-05T05:39:33;7.07;;;7.07;;
11510;SDS011;5812;48.864;9.190;2023-04-05T05:42:00;7.33;;;7.33;;
11510;SDS011;5812;48.864;9.190;2023-04-05T05:44:27;7.20;;;7.20;;
11510;SDS011;5812;48.864;9.190;2023-04-05T05:46:53;6.90;;;6.90;;
11510;SDS011;5812;48.864;9.190;2023-04-05T05:49:18;7.80;;;7.80;;
11510;SDS011;5812;48.864;9.190;2023-04-05T05:51:44;6.73;;;6.73;;
11510;SDS011;5812;48.864;9.190;2023-04-05T05:54:10;6.60;;;6.60;;
11510;SDS011;5812;48.864;9.190;2023-04-05T05:56:35;6.50;;;6.50;;
11510;SDS011;5812;48.864;9.190;2023-04-05T05:59:01;6.20;;;6.20;;
11510;SDS011;5812;48.864;9.190;2023-04-05T06:01:27;5.77;;;5.77;;
11510;SDS011;5812;48.864;9.190;2023-04-05T06:03:53;6.13;;;6.13;;
11510;SDS011;5812;48.864;9.190;2023-04-05T06:06:19;5.70;;;5.70;;
11510;SDS011;5812;48.864;9.190;2023-04-05T06:08:46;5.90;;;5.90;;
11510;SDS011;5812;48.864;9.190;2023-04-05T06:11:18;5.07;;;5.07;;
11510;SDS011;5812;48.864;9.190;2023-04-05T06:13:45;4.80;;;4.80;;
11510;SDS011;5812;48.864;9.190;2023-04-05T06:16:11;5.13;;;5.13;;
11510;SDS011;5812;48.864;9.190;2023-04-05T06:18:36;5.53;;;5.53;;
11510;SDS011;5812;48.864;9.190;2023-04-05T06:21:02;5.37;;;5.37;;
11510;SDS011;5812;48.864;9.190;2023-04-05T06:23:27;5.60;;;5.60;;
11510;SDS011;5812;48.864;9.190;2023-04-05T06:25:53;5.20;;;5.20;;
11510;SDS011;5812;48.864;9.190;2023-04-05T06:28:20;5.30;;;5.30;;
11510;SDS011;5812;48.864;9.190;2023-04-05T06:30:46;4.63;;;4.63;;
11510;SDS011;5812;48.864;9.190;2023-04-05T06:33:12;5.43;;;5.43;;
11510;SDS011;5812;48.864;9.190;2023-04-05T06:35:37;5.10;;;5.10;;
11510;SDS011;5812;48.864;9.190;2023-04-05T06:38:03;5.57;;;5.57;;
11510;SDS011;5812;48.864;9.190;2023-04-05T06:40:28;6.63;;;6.63;;
11510;SDS011;5812;48.864;9.190;2023-04-05T06:42:54;6.10;;;6.10;;
11510;SDS011;5812;48.864;9.190;2023-04-05T06:45:20;6.37;;;6.37;;
11510;SDS011;5812;48.864;9.190;2023-04-05T06:47:45;5.13;;;5.13;;
11510;SDS011;5812;48.864;9.190;2023-04-05T06:50:11;5.10;;;5.10;;
11510;SDS011;5812;48.864;9.190;2023-04-05T06:52:38;5.17;;;5.17;;
11510;SDS011;5812;48.864;9.190;2023-04-05T06:55:03;4.97;;;4.97;;
11510;SDS011;5812;48.864;9.190;2023-04-05T06:57:29;4.90;;;4.90;;
11510;SDS011;5812;48.864;9.190;2023-04-05T06:59:55;5.47;;;5.47;;
11510;SDS011;5812;48.864;9.190;2023-04-05T07:02:21;5.13;;;5.13;;
11510;SDS011;5812;48.864;9.190;2023-04-05T07:04:46;4.37;;;4.37;;
11510;SDS011;5812;48.864;9.190;2023-04-05T07:07:12;4.83;;;4.83;;
11510;SDS011;5812;48.864;9.190;2023-04-05T07:09:38;4.63;;;4.63;;
11510;SDS011;5812;48.864;9.190;2023-04-05T07:12:05;5.03;;;5.03;;
11510;SDS011;5812;48.864;9.190;2023-04-05T07:14:32;4.70;;;4.70;;
11510;SDS011;5812;48.864;9.190;2023-04-05T07:16:58;4.33;;;4.33;;
11510;SDS011;5812;48.864;9.190;2023-04-05T07:19:24;4.43;;;4.43;;
11510;SDS011;5812;48.864;9.190;2023-04-05T07:21:51;4.83;;;4.83;;
11510;SDS011;5812;48.864;9.190;2023-04-05T07:24:17;5.03;;;5.03;;
11510;SDS011;5812;48.864;9.190;2023-04-05T07:26:43;4.20;;;4.20;;
11510;SDS011;5812;48.864;9.190;2023-04-05T07:29:09;4.47;;;4.47;;
11510;SDS011;5812;48.864;9.190;2023-04-05T07:31:37;4.60;;;4.60;;
11510;SDS011;5812;48.864;9.190;2023-04-05T07:34:03;4.30;;;4.30;;
11510;SDS011;5812;48.864;9.190;2023-04-05T07:36:29;4.23;;;4.23;;
11510;SDS011;5812;48.864;9.190;2023-04-05T07:38:55;4.07;;;4.07;;
11510;SDS011;5812;48.864;9.190;2023-04-05T07:41:21;4.13;;;4.13;;
11510;SDS011;5812;48.864;9.190;2023-04-05T07:43:51;5.03;;;5.03;;
11510;SDS011;5812;48.864;9.190;2023-04-05T07:46:17;4.50;;;4.50;;
11510;SDS011;5812;48.864;9.190;2023-04-05T07:48:45;3.80;;;3.80;;
11510;SDS011;5812;48.864;9.190;2023-04-05T07:51:12;4.30;;;4.30;;
11510;SDS011;5812;48.864;9.190;2023-04-05T07:53:38;4.13;;;4.13;;
11510;SDS011;5812;48.864;9.190;2023-04-05T07:56:04;4.53;;;4.53;;
11510;SDS011;5812;48.864;9.190;2023-04-05T07:58:30;3.77;;;3.77;;
11510;SDS011;5812;48.864;9.190;2023-04-05T08:01:00;4.50;;;4.50;;
11510;SDS011;5812;48.864;9.190;2023-04-05T08:03:26;4.27;;;4.27;;
11510;SDS011;5812;48.864;9.190;2023-04-05T08:05:52;4.20;;;4.20;;
11510;SDS011;5812;48.864;9.190;2023-04-05T08:08:17;3.93;;;3.93;;
11510;SDS011;5812;48.864;9.190;2023-04-05T08:10:43;3.80;;;3.80;;
11510;SDS011;5812;48.864;9.190;2023-04-05T08:13:08;4.83;;;4.83;;
11510;SDS011;5812;48.864;9.190;2023-04-05T08:15:34;3.90;;;3.90;;
11510;SDS011;5812;48.864;9.190;2023-04-05T08:18:00;4.17;;;4.17;;
11510;SDS011;5812;48.864;9.190;2023-04-05T08:20:26;4.03;;;4.03;;
11510;SDS011;5812;48.864;9.190;2023-04-05T08:22:51;3.97;;;3.97;;
11510;SDS011;5812;48.864;9.190;2023-04-05T08:25:17;4.20;;;4.20;;
11510;SDS011;5812;48.864;9.190;2023-04-05T08:27:42;3.40;;;3.40;;
11510;SDS011;5812;48.864;9.190;2023-04-05T08:30:08;3.97;;;3.97;;
11510;SDS011;5812;48.864;9.190;2023-04-05T08:32:34;3.90;;;3.90;;
11510;SDS011;5812;48.864;9.190;2023-04-05T08:35:00;3.93;;;3.93;;
11510;SDS011;5812;48.864;9.190;2023-04-05T08:37:26;3.77;;;3.77;;
11510;SDS011;5812;48.864;9.190;2023-04-05T08:39:52;4.00;;;4.00;;
11510;SDS011;5812;48.864;9.190;2023-04-05T08:42:18;3.87;;;3.87;;
11510;SDS011;5812;48.864;9.190;2023-04-05T08:44:53;3.30;;;3.30;;
11510;SDS011;5812;48.864;9.190;2023-04-05T08:47:22;3.40;;;3.40;;
11510;SDS011;5812;48.864;9.190;2023-04-05T08:49:47;3.73;;;3.73;;
11510;SDS011;5812;48.864;9.190;2023-04-05T08:52:13;3.70;;;3.70;;
11510;SDS011;5812;48.864;9.190;2023-04-05T08:54:39;3.53;;;3.53;;
11510;SDS011;5812;48.864;9.190;2023-04-05T08:57:08;3.70;;;3.70;;
11510;SDS011;5812;48.864;9.190;2023-04-05T08:59:38;3.03;;;3.03;;
11510;SDS011;5812;48.864;9.190;2023-04-05T09:02:15;2.97;;;2.97;;
11510;SDS011;5812;48.864;9.190;2023-04-05T09:04:43;3.20;;;3.20;;
11510;SDS011;5812;48.864;9.190;2023-04-05T09:07:12;3.07;;;3.07;;
11510;SDS011;5812;48.864;9.190;2023-04-05T09:09:38;3.17;;;3.17;;
11510;SDS011;5812;48.864;9.190;2023-04-05T09:12:08;3.10;;;3.10;;
11510;SDS011;5812;48.864;9.190;2023-04-05T09:14:33;3.20;;;3.20;;
11510;SDS011;5812;48.864;9.190;2023-04-05T09:17:02;2.73;;;2.73;;
11510;SDS011;5812;48.864;9.190;2023-04-05T09:19:28;2.87;;;2.87;;
11510;SDS011;5812;48.864;9.190;2023-04-05T09:22:00;2.87;;;2.87;;
11510;SDS011;5812;48.864;9.190;2023-04-05T09:24:41;2.77;;;2.77;;
11510;SDS011;5812;48.864;9.190;2023-04-05T09:27:09;3.47;;;3.47;;
11510;SDS011;5812;48.864;9.190;2023-04-05T09:29:35;3.20;;;3.20;;
11510;SDS011;5812;48.864;9.190;2023-04-05T09:32:01;3.60;;;3.60;;
11510;SDS011;5812;48.864;9.190;2023-04-05T09:34:30;3.30;;;3.30;;
11510;SDS011;5812;48.864;9.190;2023-04-05T09:36:57;3.27;;;3.27;;
11510;SDS011;5812;48.864;9.190;2023-04-05T09:39:27;3.10;;;3.10;;
11510;SDS011;5812;48.864;9.190;2023-04-05T09:44:57;3.03;;;3.03;;
11510;SDS011;5812;48.864;9.190;2023-04-05T09:47:27;2.90;;;2.90;;
11510;SDS011;5812;48.864;9.190;2023-04-05T09:49:58;3.33;;;3.33;;
11510;SDS011;5812;48.864;9.190;2023-04-05T09:52:29;3.07;;;3.07;;
11510;SDS011;5812;48.864;9.190;2023-04-05T09:54:56;3.60;;;3.60;;
11510;SDS011;5812;48.864;9.190;2023-04-05T09:57:35;3.00;;;3.00;;
11510;SDS011;5812;48.864;9.190;2023-04-05T10:00:03;2.97;;;2.97;;
11510;SDS011;5812;48.864;9.190;2023-04-05T10:02:36;3.17;;;3.17;;
11510;SDS011;5812;48.864;9.190;2023-04-05T10:05:06;2.87;;;2.87;;
11510;SDS011;5812;48.864;9.190;2023-04-05T10:07:39;3.20;;;3.20;;
11510;SDS011;5812;48.864;9.190;2023-04-05T10:10:06;3.40;;;3.40;;
11510;SDS011;5812;48.864;9.190;2023-04-05T10:12:33;2.87;;;2.87;;
11510;SDS011;5812;48.864;9.190;2023-04-05T10:15:03;3.43;;;3.43;;
11510;SDS011;5812;48.864;9.190;2023-04-05T10:20:13;3.13;;;3.13;;
11510;SDS011;5812;48.864;9.190;2023-04-05T10:28:34;3.60;;;3.60;;
11510;SDS011;5812;48.864;9.190;2023-04-05T10:39:26;3.40;;;3.40;;
11510;SDS011;5812;48.864;9.190;2023-04-05T10:42:10;3.83;;;3.83;;
11510;SDS011;5812;48.864;9.190;2023-04-05T10:44:44;3.53;;;3.53;;
11510;SDS011;5812;48.864;9.190;2023-04-05T10:47:15;3.37;;;3.37;;
11510;SDS011;5812;48.864;9.190;2023-04-05T10:49:44;3.03;;;3.03;;
11510;SDS011;5812;48.864;9.190;2023-04-05T10:52:12;3.30;;;3.30;;
11510;SDS011;5812;48.864;9.190;2023-04-05T10:54:38;3.43;;;3.43;;
11510;SDS011;5812;48.864;9.190;2023-04-05T10:57:05;3.53;;;3.53;;
11510;SDS011;5812;48.864;9.190;2023-04-05T10:59:33;3.10;;;3.10;;
11510;SDS011;5812;48.864;9.190;2023-04-05T11:02:00;3.37;;;3.37;;
11510;SDS011;5812;48.864;9.190;2023-04-05T11:04:28;3.47;;;3.47;;
11510;SDS011;5812;48.864;9.190;2023-04-05T11:07:12;3.60;;;3.60;;
11510;SDS011;5812;48.864;9.190;2023-04-05T11:09:49;3.50;;;3.50;;
11510;SDS011;5812;48.864;9.190;2023-04-05T11:13:01;3.35;;;3.35;;
11510;SDS011;5812;48.864;9.190;2023-04-05T11:20:41;3.45;;;3.45;;
11510;SDS011;5812;48.864;9.190;2023-04-05T11:23:12;3.38;;;3.38;;
11510;SDS011;5812;48.864;9.190;2023-04-05T11:25:39;3.30;;;3.30;;
11510;SDS011;5812;48.864;9.190;2023-04-05T11:28:25;3.40;;;3.40;;
11510;SDS011;5812;48.864;9.190;2023-04-05T11:30:53;3.33;;;3.33;;
11510;SDS011;5812;48.864;9.190;2023-04-05T11:33:36;3.25;;;3.25;;
11510;SDS011;5812;48.864;9.190;2023-04-05T11:36:03;3.30;;;3.30;;
11510;SDS011;5812;48.864;9.190;2023-04-05T11:38:28;3.25;;;3.25;;
11510;SDS011;5812;48.864;9.190;2023-04-05T11:41:13;3.10;;;3.10;;
11510;SDS011;5812;48.864;9.190;2023-04-05T11:43:42;3.63;;;3.63;;
11510;SDS011;5812;48.864;9.190;2023-04-05T11:46:12;3.50;;;3.50;;
11510;SDS011;5812;48.864;9.190;2023-04-05T11:48:40;3.08;;;3.08;;
11510;SDS011;5812;48.864;9.190;2023-04-05T11:51:07;3.58;;;3.58;;
11510;SDS011;5812;48.864;9.190;2023-04-05T11:53:34;3.33;;;3.33;;
11510;SDS011;5812;48.864;9.190;2023-04-05T11:56:08;3.58;;;3.58;;
11510;SDS011;5812;48.864;9.190;2023-04-05T11:58:36;2.95;;;2.95;;
11510;SDS011;5812;48.864;9.190;2023-04-05T12:01:03;3.10;;;3.10;;
11510;SDS011;5812;48.864;9.190;2023-04-05T12:03:31;3.22;;;3.22;;
11510;SDS011;5812;48.864;9.190;2023-04-05T12:05:58;3.38;;;3.38;;
11510;SDS011;5812;48.864;9.190;2023-04-05T12:11:06;3.22;;;3.22;;
11510;SDS011;5812;48.864;9.190;2023-04-05T12:13:33;3.10;;;3.10;;
11510;SDS011;5812;48.864;9.190;2023-04-05T12:16:05;3.20;;;3.20;;
11510;SDS011;5812;48.864;9.190;2023-04-05T12:18:33;3.22;;;3.22;;
11510;SDS011;5812;48.864;9.190;2023-04-05T12:21:01;2.90;;;2.90;;
11510;SDS011;5812;48.864;9.190;2023-04-05T12:23:31;3.75;;;3.75;;
11510;SDS011;5812;48.864;9.190;2023-04-05T12:25:57;3.33;;;3.33;;
11510;SDS011;5812;48.864;9.190;2023-04-05T12:28:24;2.97;;;2.97;;
11510;SDS011;5812;48.864;9.190;2023-04-05T12:30:50;3.20;;;3.20;;
11510;SDS011;5812;48.864;9.190;2023-04-05T12:33:27;3.53;;;3.53;;
11510;SDS011;5812;48.864;9.190;2023-04-05T12:35:57;3.03;;;3.03;;
11510;SDS011;5812;48.864;9.190;2023-04-05T12:38:26;3.13;;;3.13;;
11510;SDS011;5812;48.864;9.190;2023-04-05T12:40:54;3.03;;;3.03;;
11510;SDS011;5812;48.864;9.190;2023-04-05T12:43:24;2.85;;;2.85;;
11510;SDS011;5812;48.864;9.190;2023-04-05T12:45:52;3.13;;;3.13;;
11510;SDS011;5812;48.864;9.190;2023-04-05T12:48:20;3.30;;;3.30;;
11510;SDS011;5812;48.864;9.190;2023-04-05T12:50:48;2.83;;;2.83;;
11510;SDS011;5812;48.864;9.190;2023-04-05T12:53:19;3.22;;;3.22;;
11510;SDS011;5812;48.864;9.190;2023-04-05T12:55:47;2.95;;;2.95;;
11510;SDS011;5812;48.864;9.190;2023-04-05T12:58:16;3.03;;;3.03;;
11510;SDS011;5812;48.864;9.190;2023-04-05T13:00:43;2.78;;;2.78;;
11510;SDS011;5812;48.864;9.190;2023-04-05T13:03:17;2.95;;;2.95;;
11510;SDS011;5812;48.864;9.190;2023-04-05T13:05:45;2.67;;;2.67;;
11510;SDS011;5812;48.864;9.190;2023-04-05T13:08:12;3.05;;;3.05;;
11510;SDS011;5812;48.864;9.190;2023-04-05T13:10:38;3.40;;;3.40;;
11510;SDS011;5812;48.864;9.190;2023-04-05T13:13:04;3.03;;;3.03;;
11510;SDS011;5812;48.864;9.190;2023-04-05T13:15:30;3.05;;;3.05;;
11510;SDS011;5812;48.864;9.190;2023-04-05T13:17:56;3.05;;;3.05;;
11510;SDS011;5812;48.864;9.190;2023-04-05T13:20:21;3.30;;;3.30;;
11510;SDS011;5812;48.864;9.190;2023-04-05T13:22:47;2.80;;;2.80;;
11510;SDS011;5812;48.864;9.190;2023-04-05T13:25:13;3.00;;;3.00;;
11510;SDS011;5812;48.864;9.190;2023-04-05T13:27:40;2.60;;;2.60;;
11510;SDS011;5812;48.864;9.190;2023-04-05T13:30:05;3.40;;;3.40;;
11510;SDS011;5812;48.864;9.190;2023-04-05T13:32:32;2.95;;;2.95;;
11510;SDS011;5812;48.864;9.190;2023-04-05T13:34:58;2.95;;;2.95;;
11510;SDS011;5812;48.864;9.190;2023-04-05T13:37:23;2.83;;;2.83;;
11510;SDS011;5812;48.864;9.190;2023-04-05T13:39:49;2.80;;;2.80;;
11510;SDS011;5812;48.864;9.190;2023-04-05T13:42:15;2.67;;;2.67;;
11510;SDS011;5812;48.864;9.190;2023-04-05T13:44:40;2.60;;;2.60;;
11510;SDS011;5812;48.864;9.190;2023-04-05T13:47:06;2.90;;;2.90;;
11510;SDS011;5812;48.864;9.190;2023-04-05T13:49:33;2.50;;;2.50;;
11510;SDS011;5812;48.864;9.190;2023-04-05T13:51:58;3.10;;;3.10;;
11510;SDS011;5812;48.864;9.190;2023-04-05T13:54:24;2.88;;;2.88;;
11510;SDS011;5812;48.864;9.190;2023-04-05T13:56:49;2.53;;;2.53;;
11510;SDS011;5812;48.864;9.190;2023-04-05T13:59:15;2.85;;;2.85;;
11510;SDS011;5812;48.864;9.190;2023-04-05T14:01:43;3.17;;;3.17;;
11510;SDS011;5812;48.864;9.190;2023-04-05T14:04:09;2.97;;;2.97;;
11510;SDS011;5812;48.864;9.190;2023-04-05T14:06:35;3.05;;;3.05;;
11510;SDS011;5812;48.864;9.190;2023-04-05T14:09:00;2.75;;;2.75;;
11510;SDS011;5812;48.864;9.190;2023-04-05T14:11:26;2.97;;;2.97;;
11510;SDS011;5812;48.864;9.190;2023-04-05T14:13:52;2.80;;;2.80;;
11510;SDS011;5812;48.864;9.190;2023-04-05T14:16:17;2.80;;;2.80;;
11510;SDS011;5812;48.864;9.190;2023-04-05T14:18:43;2.70;;;2.70;;
11510;SDS011;5812;48.864;9.190;2023-04-05T14:21:09;2.70;;;2.70;;
11510;SDS011;5812;48.864;9.190;2023-04-05T14:23:35;2.90;;;2.90;;
11510;SDS011;5812;48.864;9.190;2023-04-05T14:26:00;2.83;;;2.83;;
11510;SDS011;5812;48.864;9.190;2023-04-05T14:28:26;2.97;;;2.97;;
11510;SDS011;5812;48.864;9.190;2023-04-05T14:30:52;2.50;;;2.50;;
11510;SDS011;5812;48.864;9.190;2023-04-05T14:33:17;2.90;;;2.90;;
11510;SDS011;5812;48.864;9.190;2023-04-05T14:35:43;2.60;;;2.60;;
11510;SDS011;5812;48.864;9.190;2023-04-05T14:38:08;3.08;;;3.08;;
11510;SDS011;5812;48.864;9.190;2023-04-05T14:40:34;3.05;;;3.05;;
11510;SDS011;5812;48.864;9.190;2023-04-05T14:43:00;2.53;;;2.53;;
11510;SDS011;5812;48.864;9.190;2023-04-05T14:45:26;2.83;;;2.83;;
11510;SDS011;5812;48.864;9.190;2023-04-05T14:47:52;2.28;;;2.28;;
11510;SDS011;5812;48.864;9.190;2023-04-05T14:50:18;2.83;;;2.83;;
11510;SDS011;5812;48.864;9.190;2023-04-05T14:52:44;3.15;;;3.15;;
11510;SDS011;5812;48.864;9.190;2023-04-05T14:55:10;2.58;;;2.58;;
11510;SDS011;5812;48.864;9.190;2023-04-05T14:57:37;2.65;;;2.65;;
11510;SDS011;5812;48.864;9.190;2023-04-05T15:00:04;2.38;;;2.38;;
11510;SDS011;5812;48.864;9.190;2023-04-05T15:02:31;2.83;;;2.83;;
11510;SDS011;5812;48.864;9.190;2023-04-05T15:04:57;2.63;;;2.63;;
11510;SDS011;5812;48.864;9.190;2023-04-05T15:07:24;2.93;;;2.93;;
11510;SDS011;5812;48.864;9.190;2023-04-05T15:09:50;2.80;;;2.80;;
11510;SDS011;5812;48.864;9.190;2023-04-05T15:12:16;2.72;;;2.72;;
11510;SDS011;5812;48.864;9.190;2023-04-05T15:14:41;2.80;;;2.80;;
11510;SDS011;5812;48.864;9.190;2023-04-05T15:17:09;2.53;;;2.53;;
11510;SDS011;5812;48.864;9.190;2023-04-05T15:19:35;2.80;;;2.80;;
11510;SDS011;5812;48.864;9.190;2023-04-05T15:22:01;2.53;;;2.53;;
11510;SDS011;5812;48.864;9.190;2023-04-05T15:24:27;3.10;;;3.10;;
11510;SDS011;5812;48.864;9.190;2023-04-05T15:26:53;2.83;;;2.83;;
11510;SDS011;5812;48.864;9.190;2023-04-05T15:29:25;2.50;;;2.50;;
11510;SDS011;5812;48.864;9.190;2023-04-05T15:31:54;3.03;;;3.03;;
11510;SDS011;5812;48.864;9.190;2023-04-05T15:34:22;3.25;;;3.25;;
11510;SDS011;5812;48.864;9.190;2023-04-05T15:36:48;2.63;;;2.63;;
11510;SDS011;5812;48.864;9.190;2023-04-05T15:39:13;2.60;;;2.60;;